Time;durP1;ratioP1;P1;durP2;ratioP2;P2;SDS_P1;SDS_P2;PMS_P1;PMS_P2;Temp;Humidity;BMP_temperature;BMP_pressure;BME280_temperature;BME280_humidity;BME280_pressure;Samples;Min_cycle;Max_cycle;Signal;HPM_P1;HPM_P2
2021/07/01 00:01:18;;;;;;;0.00;0.00;;;13.50;99.90;;;;;;4960940;28;20237;-67
2021/07/01 00:03:45;;;;;;;0.00;0.00;;;13.50;99.90;;;;;;4957693;28;20233;-67
2021/07/01 00:06:12;;;;;;;0.27;0.27;;;13.40;99.90;;;;;;4958433;28;20261;-67
2021/07/01 00:08:39;;;;;;;0.00;0.00;;;13.50;99.90;;;;;;4958320;28;20246;-70
2021/07/01 00:11:06;;;;;;;0.00;0.00;;;13.50;99.90;;;;;;4959348;28;20207;-67
2021/07/01 00:13:33;;;;;;;0.00;0.00;;;13.40;99.90;;;;;;4960561;28;20755;-67
2021/07/01 00:16:01;;;;;;;0.00;0.00;;;13.50;99.90;;;;;;4961284;28;20202;-67
2021/07/01 00:18:28;;;;;;;0.00;0.00;;;13.40;99.90;;;;;;4960443;28;20198;-66
2021/07/01 00:20:55;;;;;;;0.00;0.00;;;13.40;99.90;;;;;;4956406;28;20272;-68
2021/07/01 00:23:22;;;;;;;0.00;0.00;;;13.40;99.90;;;;;;4958269;28;20203;-68
2021/07/01 00:25:49;;;;;;;0.00;0.00;;;13.40;99.90;;;;;;4963035;28;20198;-68
2021/07/01 00:28:16;;;;;;;0.00;0.00;;;13.40;99.90;;;;;;4961692;28;20241;-68
2021/07/01 00:30:43;;;;;;;0.30;0.30;;;13.40;99.90;;;;;;4962543;28;20213;-68
2021/07/01 00:33:12;;;;;;;0.00;0.00;;;13.50;99.90;;;;;;4964628;28;20228;-67
2021/07/01 00:35:39;;;;;;;0.00;0.00;;;13.50;99.90;;;;;;4962221;28;20203;-67
2021/07/01 00:38:06;;;;;;;0.00;0.00;;;13.40;99.90;;;;;;4965864;28;20261;-68
2021/07/01 00:40:33;;;;;;;0.00;0.00;;;13.40;99.90;;;;;;4967878;28;20210;-67
2021/07/01 00:43:00;;;;;;;0.00;0.00;;;13.40;99.90;;;;;;4971851;28;20203;-66
2021/07/01 00:45:27;;;;;;;0.00;0.00;;;13.50;99.90;;;;;;4972185;28;20241;-67
2021/07/01 00:47:54;;;;;;;0.00;0.00;;;13.50;99.90;;;;;;4973644;28;20257;-67
2021/07/01 00:50:25;;;;;;;0.00;0.00;;;13.50;99.90;;;;;;4969492;28;20207;-67
2021/07/01 00:52:52;;;;;;;0.00;0.00;;;13.40;99.90;;;;;;4960874;28;20218;-67
2021/07/01 00:55:20;;;;;;;0.00;0.00;;;13.40;99.90;;;;;;4963284;28;20204;-67
2021/07/01 00:57:47;;;;;;;0.00;0.00;;;13.40;99.90;;;;;;4961433;28;20238;-67
2021/07/01 01:03:01;;;;;;;0.00;0.00;;;13.40;99.90;;;;;;4955157;28;20233;-68
2021/07/01 01:05:30;;;;;;;0.00;0.00;;;13.40;99.90;;;;;;4960757;28;20242;-68
2021/07/01 01:07:57;;;;;;;0.00;0.00;;;13.30;99.90;;;;;;4960626;28;20714;-67
2021/07/01 01:10:24;;;;;;;0.00;0.00;;;13.30;99.90;;;;;;4958352;28;20225;-67
2021/07/01 01:12:51;;;;;;;0.00;0.00;;;13.40;99.90;;;;;;4964255;28;20214;-67
2021/07/01 01:15:18;;;;;;;0.00;0.00;;;13.30;99.90;;;;;;4960236;28;20616;-67
2021/07/01 01:17:45;;;;;;;0.00;0.00;;;13.30;99.90;;;;;;4964684;28;20257;-67
2021/07/01 01:20:14;;;;;;;0.00;0.00;;;13.30;99.90;;;;;;4962682;28;20672;-67
2021/07/01 01:22:43;;;;;;;0.00;0.00;;;13.30;99.90;;;;;;4961144;28;20194;-68
2021/07/01 01:25:11;;;;;;;0.00;0.00;;;13.30;99.90;;;;;;4959882;28;21115;-68
2021/07/01 01:27:38;;;;;;;0.00;0.00;;;13.30;99.90;;;;;;4961903;28;20280;-67
2021/07/01 01:30:07;;;;;;;0.10;0.10;;;13.30;99.90;;;;;;4960791;28;20268;-67
2021/07/01 01:32:34;;;;;;;0.00;0.00;;;13.30;99.90;;;;;;4961097;28;20209;-67
2021/07/01 01:35:01;;;;;;;0.00;0.00;;;13.30;99.90;;;;;;4961924;28;20660;-67
2021/07/01 01:37:28;;;;;;;0.00;0.00;;;13.30;99.90;;;;;;4958959;28;20213;-68
2021/07/01 01:39:56;;;;;;;0.00;0.00;;;13.30;99.90;;;;;;4958389;28;20210;-68
2021/07/01 01:42:23;;;;;;;0.00;0.00;;;13.30;99.90;;;;;;4959773;28;20249;-67
2021/07/01 01:44:50;;;;;;;0.00;0.00;;;13.30;99.90;;;;;;4960751;28;20226;-68
2021/07/01 01:47:18;;;;;;;0.00;0.00;;;13.30;99.90;;;;;;4959891;28;20218;-68
2021/07/01 01:49:46;;;;;;;0.00;0.00;;;13.30;99.90;;;;;;4961388;28;20207;-67
2021/07/01 01:52:13;;;;;;;0.00;0.00;;;13.30;99.90;;;;;;4958411;28;20306;-68
2021/07/01 01:54:40;;;;;;;0.00;0.00;;;13.30;99.90;;;;;;4959954;28;20206;-68
2021/07/01 01:57:08;;;;;;;0.00;0.00;;;13.30;99.90;;;;;;4962291;28;20668;-67
2021/07/01 01:59:35;;;;;;;0.00;0.00;;;13.30;99.90;;;;;;4959633;28;20261;-67
2021/07/01 02:02:02;;;;;;;0.00;0.00;;;13.30;99.90;;;;;;4959511;28;20205;-68
2021/07/01 02:04:29;;;;;;;0.00;0.00;;;13.30;99.90;;;;;;4958595;28;20236;-68
2021/07/01 02:06:56;;;;;;;0.00;0.00;;;13.30;99.90;;;;;;4961851;28;20793;-68
2021/07/01 02:09:23;;;;;;;0.00;0.00;;;13.30;99.90;;;;;;4955878;28;20214;-68
2021/07/01 02:11:51;;;;;;;0.00;0.00;;;13.30;99.90;;;;;;4960107;28;20210;-68
2021/07/01 02:14:19;;;;;;;0.00;0.00;;;13.30;99.90;;;;;;4959710;28;20675;-69
2021/07/01 02:16:46;;;;;;;0.00;0.00;;;13.40;99.90;;;;;;4959175;28;20223;-67
2021/07/01 02:19:13;;;;;;;0.00;0.00;;;13.40;99.90;;;;;;4963914;28;20263;-66
2021/07/01 02:21:40;;;;;;;0.00;0.00;;;13.40;99.90;;;;;;4959961;28;20715;-67
2021/07/01 02:24:07;;;;;;;0.00;0.00;;;13.40;99.90;;;;;;4960527;28;20226;-69
2021/07/01 02:26:35;;;;;;;0.00;0.00;;;13.40;99.90;;;;;;4958088;28;20719;-68
2021/07/01 02:29:02;;;;;;;0.00;0.00;;;13.40;99.90;;;;;;4960180;28;20203;-69
2021/07/01 02:31:30;;;;;;;0.00;0.00;;;13.40;99.90;;;;;;4959473;28;20211;-68
2021/07/01 02:33:57;;;;;;;0.40;0.40;;;13.40;99.90;;;;;;4957548;28;20627;-69
2021/07/01 02:36:24;;;;;;;0.00;0.00;;;13.40;99.90;;;;;;4958106;28;20206;-68
2021/07/01 02:38:51;;;;;;;0.00;0.00;;;13.40;99.90;;;;;;4960356;28;20203;-68
2021/07/01 02:41:18;;;;;;;0.00;0.00;;;13.50;99.90;;;;;;4962363;28;20202;-68
2021/07/01 02:43:45;;;;;;;0.00;0.00;;;13.50;99.90;;;;;;4962456;28;20210;-68
2021/07/01 02:46:12;;;;;;;0.00;0.00;;;13.40;99.90;;;;;;4958363;28;20231;-68
2021/07/01 02:48:41;;;;;;;0.00;0.00;;;13.40;99.90;;;;;;4958598;28;20779;-68
2021/07/01 02:51:08;;;;;;;0.00;0.00;;;13.40;99.90;;;;;;4957941;28;20206;-68
2021/07/01 02:53:35;;;;;;;0.00;0.00;;;13.50;99.90;;;;;;4961728;28;20210;-67
2021/07/01 02:56:01;;;;;;;0.00;0.00;;;13.40;99.90;;;;;;4959840;28;20215;-67
2021/07/01 02:58:28;;;;;;;0.00;0.00;;;13.40;99.90;;;;;;4959946;28;20202;-67
2021/07/01 03:00:55;;;;;;;0.10;0.10;;;13.40;99.90;;;;;;4960695;28;20264;-69
2021/07/01 03:03:22;;;;;;;0.00;0.00;;;13.40;99.90;;;;;;4959001;28;20249;-68
2021/07/01 03:05:51;;;;;;;0.00;0.00;;;13.40;99.90;;;;;;4960078;28;20802;-69
2021/07/01 03:08:18;;;;;;;0.00;0.00;;;13.40;99.90;;;;;;4958355;28;20217;-69
2021/07/01 03:10:45;;;;;;;0.00;0.00;;;13.50;99.90;;;;;;4956484;28;20202;-69
2021/07/01 03:13:12;;;;;;;0.00;0.00;;;13.50;99.90;;;;;;4958827;28;20206;-69
2021/07/01 03:15:39;;;;;;;0.00;0.00;;;13.40;99.90;;;;;;4966862;28;20213;-69
2021/07/01 03:18:06;;;;;;;0.00;0.00;;;13.40;99.90;;;;;;4971175;28;20552;-69
2021/07/01 03:20:33;;;;;;;0.00;0.00;;;13.40;99.90;;;;;;4968556;28;20210;-69
2021/07/01 03:23:02;;;;;;;0.00;0.00;;;13.40;99.90;;;;;;4968112;28;20606;-68
2021/07/01 03:25:29;;;;;;;0.00;0.00;;;13.40;99.90;;;;;;4970424;28;20358;-67
2021/07/01 03:27:57;;;;;;;0.00;0.00;;;13.40;99.90;;;;;;4969356;28;20727;-67
2021/07/01 03:30:24;;;;;;;0.20;0.20;;;13.30;99.90;;;;;;4968364;28;20684;-68
2021/07/01 03:32:51;;;;;;;0.00;0.00;;;13.40;99.90;;;;;;4966293;28;20245;-68
2021/07/01 03:35:18;;;;;;;0.43;0.43;;;13.40;99.90;;;;;;4970114;28;20217;-67
2021/07/01 03:37:45;;;;;;;0.00;0.00;;;13.40;99.90;;;;;;4968487;28;20206;-68
2021/07/01 03:40:14;;;;;;;0.00;0.00;;;13.40;99.90;;;;;;4965642;28;20253;-68
2021/07/01 03:42:41;;;;;;;0.00;0.00;;;13.40;99.90;;;;;;4963972;28;20210;-67
2021/07/01 03:45:09;;;;;;;0.00;0.00;;;13.40;99.90;;;;;;4968186;28;20230;-68
2021/07/01 03:47:36;;;;;;;0.00;0.00;;;13.40;99.90;;;;;;4967960;28;20670;-68
2021/07/01 03:50:04;;;;;;;0.00;0.00;;;13.40;99.90;;;;;;4969975;28;20249;-67
2021/07/01 03:52:31;;;;;;;0.00;0.00;;;13.40;99.90;;;;;;4971417;28;20210;-69
2021/07/01 03:54:58;;;;;;;0.00;0.00;;;13.40;99.90;;;;;;4967346;28;20214;-68
2021/07/01 03:57:26;;;;;;;0.00;0.00;;;13.40;99.90;;;;;;4965635;28;20210;-69
2021/07/01 03:59:53;;;;;;;0.00;0.00;;;13.50;99.90;;;;;;4959576;28;20207;-68
2021/07/01 04:02:20;;;;;;;0.00;0.00;;;13.40;99.90;;;;;;4967428;28;20202;-69
2021/07/01 04:04:47;;;;;;;0.00;0.00;;;13.40;99.90;;;;;;4966726;28;20222;-69
2021/07/01 04:07:14;;;;;;;0.10;0.10;;;13.40;99.90;;;;;;4970361;28;20209;-68
2021/07/01 04:09:41;;;;;;;0.00;0.00;;;13.40;99.90;;;;;;4971770;28;20202;-68
2021/07/01 04:12:09;;;;;;;0.00;0.00;;;13.40;99.90;;;;;;4972027;28;20214;-68
2021/07/01 04:14:37;;;;;;;0.00;0.00;;;13.30;99.90;;;;;;4972812;28;20298;-68
2021/07/01 04:17:05;;;;;;;0.00;0.00;;;13.30;99.90;;;;;;4971751;28;20280;-67
2021/07/01 04:19:32;;;;;;;0.00;0.00;;;13.40;99.90;;;;;;4973069;28;20210;-67
2021/07/01 04:21:59;;;;;;;0.00;0.00;;;13.30;99.90;;;;;;4968866;28;20202;-68
2021/07/01 04:24:27;;;;;;;0.03;0.03;;;13.30;99.90;;;;;;4971170;28;20210;-67
2021/07/01 04:26:54;;;;;;;0.00;0.00;;;13.30;99.90;;;;;;4974608;28;20225;-67
2021/07/01 04:29:21;;;;;;;0.00;0.00;;;13.30;99.90;;;;;;4972433;28;20202;-68
2021/07/01 04:31:49;;;;;;;0.00;0.00;;;13.30;99.90;;;;;;4970296;28;20210;-67
2021/07/01 04:34:16;;;;;;;0.00;0.00;;;13.30;99.90;;;;;;4971922;28;20206;-67
2021/07/01 04:36:44;;;;;;;0.00;0.00;;;13.30;99.90;;;;;;4971227;28;20729;-67
2021/07/01 04:39:11;;;;;;;0.00;0.00;;;13.40;99.90;;;;;;4972625;28;20213;-67
2021/07/01 04:41:38;;;;;;;0.23;0.23;;;13.40;99.90;;;;;;4970705;28;20245;-67
2021/07/01 04:44:05;;;;;;;0.00;0.00;;;13.40;99.90;;;;;;4972421;28;20210;-67
2021/07/01 04:46:32;;;;;;;0.00;0.00;;;13.40;99.90;;;;;;4972420;28;20272;-67
2021/07/01 04:49:01;;;;;;;0.00;0.00;;;13.40;99.90;;;;;;4971116;28;20623;-67
2021/07/01 04:51:28;;;;;;;0.37;0.30;;;13.40;99.90;;;;;;4971536;28;20210;-67
2021/07/01 04:53:55;;;;;;;0.00;0.00;;;13.40;99.90;;;;;;4971137;28;20210;-67
2021/07/01 04:56:22;;;;;;;0.00;0.00;;;13.40;99.90;;;;;;4970822;28;20221;-67
2021/07/01 04:58:50;;;;;;;0.00;0.00;;;13.40;99.90;;;;;;4970890;28;20261;-67
2021/07/01 05:01:17;;;;;;;0.00;0.00;;;13.50;99.90;;;;;;4970583;28;20207;-67
2021/07/01 05:03:44;;;;;;;0.00;0.00;;;13.50;99.90;;;;;;4971675;28;20719;-67
2021/07/01 05:06:12;;;;;;;0.00;0.00;;;13.50;99.90;;;;;;4974580;28;20289;-67
2021/07/01 05:08:39;;;;;;;0.00;0.00;;;13.40;99.90;;;;;;4970223;28;20214;-67
2021/07/01 05:11:06;;;;;;;0.00;0.00;;;13.50;99.90;;;;;;4970804;28;20723;-66
2021/07/01 05:13:33;;;;;;;0.53;0.53;;;13.50;99.90;;;;;;4971897;28;20269;-67
2021/07/01 05:16:00;;;;;;;0.00;0.00;;;13.50;99.90;;;;;;4968474;28;20209;-67
2021/07/01 05:18:27;;;;;;;0.00;0.00;;;13.50;99.90;;;;;;4971543;28;20648;-67
2021/07/01 05:20:54;;;;;;;0.00;0.00;;;13.50;99.90;;;;;;4975740;28;20207;-67
2021/07/01 05:23:23;;;;;;;0.00;0.00;;;13.50;99.90;;;;;;4958043;28;20257;-67
2021/07/01 05:25:50;;;;;;;0.00;0.00;;;13.50;99.90;;;;;;4960683;28;20234;-66
2021/07/01 05:28:17;;;;;;;0.00;0.00;;;13.50;99.90;;;;;;4962838;28;20233;-67
2021/07/01 05:30:44;;;;;;;0.00;0.00;;;13.50;99.90;;;;;;4968845;28;20207;-67
2021/07/01 05:33:11;;;;;;;0.00;0.00;;;13.50;99.90;;;;;;4965714;28;20218;-67
2021/07/01 05:35:38;;;;;;;0.00;0.00;;;13.60;99.90;;;;;;4970675;28;20206;-68
2021/07/01 05:38:05;;;;;;;0.00;0.00;;;13.60;99.90;;;;;;4969636;28;20203;-68
2021/07/01 05:40:34;;;;;;;0.00;0.00;;;13.60;99.90;;;;;;4972652;28;20699;-68
2021/07/01 05:43:01;;;;;;;0.00;0.00;;;13.60;99.90;;;;;;4970564;28;20198;-68
2021/07/01 05:45:28;;;;;;;0.00;0.00;;;13.60;99.90;;;;;;4956974;28;20234;-68
2021/07/01 05:47:55;;;;;;;0.00;0.00;;;13.70;99.90;;;;;;4963529;28;20210;-75
2021/07/01 05:50:22;;;;;;;0.10;0.10;;;13.70;99.90;;;;;;4960197;28;20269;-68
2021/07/01 05:52:53;;;;;;;0.00;0.00;;;13.70;99.90;;;;;;4960717;28;20788;-68
2021/07/01 05:55:20;;;;;;;0.00;0.00;;;13.70;99.90;;;;;;4958849;28;20379;-69
2021/07/01 05:57:49;;;;;;;0.00;0.00;;;13.70;99.90;;;;;;4963709;28;20206;-68
2021/07/01 06:00:18;;;;;;;0.13;0.13;;;13.70;99.90;;;;;;4968459;28;20262;-67
2021/07/01 06:02:45;;;;;;;0.00;0.00;;;13.70;99.90;;;;;;4969319;28;20596;-66
2021/07/01 06:05:12;;;;;;;0.00;0.00;;;13.70;99.90;;;;;;4966998;28;20289;-67
2021/07/01 06:07:42;;;;;;;0.00;0.00;;;13.70;99.90;;;;;;4970993;28;20209;-66
2021/07/01 06:10:13;;;;;;;0.00;0.00;;;13.80;99.90;;;;;;4970553;28;20261;-68
2021/07/01 06:12:41;;;;;;;0.10;0.10;;;13.80;99.90;;;;;;4969350;28;20210;-67
2021/07/01 06:15:11;;;;;;;0.00;0.00;;;13.80;99.90;;;;;;4971468;28;20199;-68
2021/07/01 06:17:39;;;;;;;0.00;0.00;;;13.80;99.90;;;;;;4966517;28;20267;-68
2021/07/01 06:20:08;;;;;;;0.00;0.00;;;13.80;99.90;;;;;;4967812;28;20223;-67
2021/07/01 06:22:36;;;;;;;0.00;0.00;;;13.80;99.90;;;;;;4965413;28;20269;-68
2021/07/01 06:25:04;;;;;;;0.00;0.00;;;13.90;99.90;;;;;;4959678;28;20571;-68
2021/07/01 06:27:35;;;;;;;0.00;0.00;;;13.90;99.90;;;;;;4957658;28;20234;-69
2021/07/01 06:30:05;;;;;;;0.00;0.00;;;14.00;99.90;;;;;;4960359;28;20710;-70
2021/07/01 06:32:40;;;;;;;0.07;0.07;;;14.00;99.90;;;;;;4960479;28;20365;-69
2021/07/01 06:35:08;;;;;;;0.00;0.00;;;14.10;99.90;;;;;;4964743;28;20738;-68
2021/07/01 06:37:37;;;;;;;0.00;0.00;;;14.10;99.90;;;;;;4960515;28;20202;-70
2021/07/01 06:40:05;;;;;;;0.00;0.00;;;14.20;99.90;;;;;;4967156;28;20280;-69
2021/07/01 06:42:34;;;;;;;0.00;0.00;;;14.20;99.90;;;;;;4971484;28;20256;-69
2021/07/01 06:45:02;;;;;;;0.00;0.00;;;14.30;99.90;;;;;;4970167;28;20218;-69
2021/07/01 06:47:30;;;;;;;0.00;0.00;;;14.30;99.90;;;;;;4969565;28;20715;-69
2021/07/01 06:49:59;;;;;;;0.00;0.00;;;14.30;99.90;;;;;;4961286;28;20203;-71
2021/07/01 06:52:26;;;;;;;0.00;0.00;;;14.30;99.90;;;;;;4972384;28;20202;-69
2021/07/01 06:54:54;;;;;;;0.00;0.00;;;14.40;99.90;;;;;;4969099;28;20210;-69
2021/07/01 06:57:22;;;;;;;0.00;0.00;;;14.40;99.90;;;;;;4968157;28;20217;-68
2021/07/01 06:59:49;;;;;;;0.00;0.00;;;14.40;99.90;;;;;;4968295;28;20206;-67
2021/07/01 07:02:16;;;;;;;0.00;0.00;;;14.30;99.90;;;;;;4968877;28;20207;-67
2021/07/01 07:04:44;;;;;;;0.00;0.00;;;14.30;99.90;;;;;;4970428;28;20273;-69
2021/07/01 07:07:13;;;;;;;0.00;0.00;;;14.40;99.90;;;;;;4967416;28;20340;-68
2021/07/01 07:09:40;;;;;;;0.00;0.00;;;14.40;99.90;;;;;;4963196;28;20209;-68
2021/07/01 07:12:07;;;;;;;0.00;0.00;;;14.40;99.90;;;;;;4958933;28;20202;-70
2021/07/01 07:14:34;;;;;;;0.00;0.00;;;14.40;99.90;;;;;;4964756;28;20210;-69
2021/07/01 07:17:02;;;;;;;0.00;0.00;;;14.40;99.90;;;;;;4970787;28;20660;-69
2021/07/01 07:19:31;;;;;;;0.00;0.00;;;14.40;99.90;;;;;;4968617;28;20206;-69
2021/07/01 07:22:02;;;;;;;0.00;0.00;;;14.40;99.90;;;;;;4969926;28;20213;-69
2021/07/01 07:24:33;;;;;;;0.00;0.00;;;14.40;99.90;;;;;;4968516;28;20213;-69
2021/07/01 07:27:00;;;;;;;0.00;0.00;;;14.40;99.90;;;;;;4969896;28;20293;-69
2021/07/01 07:29:32;;;;;;;0.00;0.00;;;14.40;99.90;;;;;;4966273;28;20257;-69
2021/07/01 07:32:03;;;;;;;0.00;0.00;;;14.40;99.90;;;;;;4970221;28;20198;-73
2021/07/01 07:34:31;;;;;;;0.00;0.00;;;14.40;99.90;;;;;;4966995;28;20252;-75
2021/07/01 07:36:59;;;;;;;0.00;0.00;;;14.50;99.90;;;;;;4968105;28;20222;-68
2021/07/01 07:39:26;;;;;;;0.00;0.00;;;14.50;99.90;;;;;;4973127;28;20596;-66
2021/07/01 07:41:55;;;;;;;0.47;0.33;;;14.60;99.90;;;;;;4971380;28;20206;-66
2021/07/01 07:44:22;;;;;;;0.00;0.00;;;14.70;99.90;;;;;;4972867;28;20206;-66
2021/07/01 07:46:50;;;;;;;0.00;0.00;;;14.80;99.90;;;;;;4972660;28;20276;-65
2021/07/01 07:49:19;;;;;;;0.00;0.00;;;14.90;99.90;;;;;;4970156;28;20207;-71
2021/07/01 07:51:50;;;;;;;0.00;0.00;;;15.00;99.90;;;;;;4973869;28;20210;-65
2021/07/01 07:54:24;;;;;;;0.00;0.00;;;15.00;99.90;;;;;;4973696;28;20190;-65
2021/07/01 07:56:54;;;;;;;0.10;0.10;;;15.10;99.90;;;;;;4972229;28;20256;-64
2021/07/01 07:59:28;;;;;;;0.00;0.00;;;15.20;99.90;;;;;;4971127;28;20351;-64
2021/07/01 08:01:55;;;;;;;0.43;0.43;;;15.30;99.90;;;;;;4962753;28;20217;-64
2021/07/01 08:04:24;;;;;;;0.00;0.00;;;15.30;99.90;;;;;;4970643;28;20727;-67
2021/07/01 08:06:54;;;;;;;0.00;0.00;;;15.30;99.90;;;;;;4964432;28;20265;-64
2021/07/01 08:09:26;;;;;;;0.57;0.27;;;15.30;99.90;;;;;;4966951;28;20202;-65
2021/07/01 08:11:55;;;;;;;0.00;0.00;;;15.30;99.90;;;;;;4961200;28;20202;-64
2021/07/01 08:14:24;;;;;;;0.00;0.00;;;15.30;99.90;;;;;;4971246;28;20202;-64
2021/07/01 08:16:52;;;;;;;0.00;0.00;;;15.30;99.90;;;;;;4967502;28;20234;-64
2021/07/01 08:19:19;;;;;;;0.00;0.00;;;15.30;99.90;;;;;;4959183;28;20213;-66
2021/07/01 08:21:47;;;;;;;0.13;0.13;;;15.30;99.90;;;;;;4973557;28;20203;-64
2021/07/01 08:24:14;;;;;;;0.00;0.00;;;15.30;99.90;;;;;;4973454;28;20214;-64
2021/07/01 08:26:42;;;;;;;0.00;0.00;;;15.30;99.90;;;;;;4960435;28;20241;-65
2021/07/01 08:29:11;;;;;;;0.00;0.00;;;15.30;99.90;;;;;;4971465;28;20660;-64
2021/07/01 08:31:46;;;;;;;0.00;0.00;;;15.30;99.90;;;;;;4971357;28;20210;-64
2021/07/01 08:34:16;;;;;;;0.00;0.00;;;15.40;99.90;;;;;;4966358;28;20224;-65
2021/07/01 08:36:46;;;;;;;0.00;0.00;;;15.40;99.90;;;;;;4972477;28;20306;-65
2021/07/01 08:39:13;;;;;;;0.00;0.00;;;15.40;99.90;;;;;;4971285;28;20199;-65
2021/07/01 08:41:44;;;;;;;0.00;0.00;;;15.40;99.90;;;;;;4969575;28;20206;-66
2021/07/01 08:44:17;;;;;;;0.00;0.00;;;15.40;99.90;;;;;;4960826;28;20206;-64
2021/07/01 08:46:49;;;;;;;0.00;0.00;;;15.40;99.90;;;;;;4968400;28;20255;-64
2021/07/01 08:49:27;;;;;;;0.00;0.00;;;15.40;99.90;;;;;;4967618;28;20214;-65
2021/07/01 08:52:01;;;;;;;0.00;0.00;;;15.40;99.90;;;;;;4973101;28;20206;-64
2021/07/01 08:54:31;;;;;;;0.00;0.00;;;15.40;99.90;;;;;;4973708;28;20202;-64
2021/07/01 08:56:59;;;;;;;0.00;0.00;;;15.40;99.90;;;;;;4971616;28;20664;-64
2021/07/01 08:59:27;;;;;;;0.00;0.00;;;15.40;99.90;;;;;;4970608;28;20218;-66
2021/07/01 09:02:01;;;;;;;0.00;0.00;;;15.40;99.90;;;;;;4960531;28;20214;-64
2021/07/01 09:04:31;;;;;;;0.00;0.00;;;15.40;99.90;;;;;;4967529;28;20202;-64
2021/07/01 09:07:00;;;;;;;0.00;0.00;;;15.40;99.90;;;;;;4963286;28;20226;-65
2021/07/01 09:09:32;;;;;;;0.00;0.00;;;15.50;99.90;;;;;;4964578;28;20207;-64
2021/07/01 09:12:02;;;;;;;0.00;0.00;;;15.50;99.90;;;;;;4966976;28;20230;-65
2021/07/01 09:14:31;;;;;;;0.00;0.00;;;15.50;99.90;;;;;;4966368;28;20206;-64
2021/07/01 09:17:02;;;;;;;0.00;0.00;;;15.50;99.90;;;;;;4970665;28;20206;-64
2021/07/01 09:19:29;;;;;;;0.00;0.00;;;15.60;99.90;;;;;;4969863;28;20322;-64
2021/07/01 09:21:57;;;;;;;0.00;0.00;;;15.60;99.90;;;;;;4954116;28;20211;-64
2021/07/01 09:24:28;;;;;;;0.00;0.00;;;15.60;99.90;;;;;;4954550;28;20258;-64
2021/07/01 09:26:58;;;;;;;0.00;0.00;;;15.60;99.90;;;;;;4954424;28;20246;-64
2021/07/01 09:29:28;;;;;;;0.00;0.00;;;15.60;99.90;;;;;;4968810;28;20265;-64
2021/07/01 09:31:58;;;;;;;0.00;0.00;;;15.60;99.90;;;;;;4970943;28;20210;-63
2021/07/01 09:34:26;;;;;;;0.00;0.00;;;15.60;99.90;;;;;;4970258;28;20687;-64
2021/07/01 09:36:57;;;;;;;0.00;0.00;;;15.60;99.90;;;;;;4970146;28;20210;-66
2021/07/01 09:39:26;;;;;;;0.00;0.00;;;15.70;99.90;;;;;;4968724;28;20206;-64
2021/07/01 09:41:57;;;;;;;0.00;0.00;;;15.70;99.90;;;;;;4970301;28;20210;-64
2021/07/01 09:44:27;;;;;;;0.00;0.00;;;15.80;99.90;;;;;;4966904;28;20215;-63
2021/07/01 09:46:57;;;;;;;0.00;0.00;;;15.80;99.90;;;;;;4968616;28;20222;-64
2021/07/01 09:49:32;;;;;;;0.00;0.00;;;15.80;99.90;;;;;;4969604;28;20290;-63
2021/07/01 09:52:04;;;;;;;0.43;0.43;;;15.80;99.90;;;;;;4969968;28;20266;-64
2021/07/01 09:54:34;;;;;;;0.00;0.00;;;15.80;99.90;;;;;;4968513;28;20605;-66
2021/07/01 09:57:06;;;;;;;0.00;0.00;;;15.70;99.90;;;;;;4966845;28;20205;-65
2021/07/01 09:59:42;;;;;;;0.00;0.00;;;15.80;99.90;;;;;;4970598;28;20210;-67
2021/07/01 10:02:17;;;;;;;0.17;0.17;;;15.80;99.90;;;;;;4970163;28;20202;-65
2021/07/01 10:04:46;;;;;;;0.00;0.00;;;15.70;99.90;;;;;;4966982;28;20322;-67
2021/07/01 10:07:17;;;;;;;0.00;0.00;;;15.80;99.90;;;;;;4964992;28;20238;-63
2021/07/01 10:09:44;;;;;;;0.00;0.00;;;15.80;99.90;;;;;;4963407;28;20202;-65
2021/07/01 10:12:16;;;;;;;0.00;0.00;;;15.90;99.90;;;;;;4968794;28;20249;-65
2021/07/01 10:14:43;;;;;;;0.00;0.00;;;15.90;99.90;;;;;;4972036;28;20210;-65
2021/07/01 10:17:12;;;;;;;0.00;0.00;;;16.00;99.90;;;;;;4971799;28;20207;-66
2021/07/01 10:19:39;;;;;;;0.00;0.00;;;16.10;99.90;;;;;;4969585;28;20290;-65
2021/07/01 10:22:09;;;;;;;0.00;0.00;;;16.20;99.90;;;;;;4973052;28;20206;-66
2021/07/01 10:24:49;;;;;;;0.00;0.00;;;16.20;99.90;;;;;;4968066;28;20265;-65
2021/07/01 10:27:31;;;;;;;0.20;0.20;;;16.30;99.90;;;;;;4968434;28;20233;-65
2021/07/01 10:30:01;;;;;;;0.20;0.20;;;16.30;99.90;;;;;;4961342;28;20289;-65
2021/07/01 10:32:39;;;;;;;8.83;0.53;;;16.40;99.90;;;;;;4962854;28;20211;-65
2021/07/01 10:35:20;;;;;;;0.00;0.00;;;16.50;99.90;;;;;;4970439;28;20203;-66
2021/07/01 10:38:06;;;;;;;0.00;0.00;;;16.50;99.90;;;;;;4965817;28;20214;-63
2021/07/01 10:40:36;;;;;;;0.00;0.00;;;16.60;99.90;;;;;;4968564;28;20202;-65
2021/07/01 10:43:05;;;;;;;0.10;0.10;;;16.80;99.90;;;;;;4966060;28;20203;-65
2021/07/01 10:45:32;;;;;;;0.00;0.00;;;17.10;99.90;;;;;;4972557;28;20602;-65
2021/07/01 10:48:14;;;;;;;0.00;0.00;;;17.30;99.90;;;;;;4970249;28;20697;-65
2021/07/01 10:50:41;;;;;;;0.00;0.00;;;17.60;99.90;;;;;;4966967;28;20256;-64
2021/07/01 10:53:31;;;;;;;0.00;0.00;;;17.80;99.90;;;;;;4966613;28;20652;-65
2021/07/01 10:56:01;;;;;;;0.00;0.00;;;17.90;99.90;;;;;;4961060;28;20202;-64
2021/07/01 10:58:29;;;;;;;0.03;0.03;;;18.10;99.90;;;;;;4968642;28;20214;-63
2021/07/01 11:00:59;;;;;;;0.00;0.00;;;18.00;99.90;;;;;;4965751;28;20266;-64
2021/07/01 11:03:28;;;;;;;0.10;0.10;;;18.10;99.90;;;;;;4963569;28;20611;-63
2021/07/01 11:05:56;;;;;;;0.00;0.00;;;18.00;99.90;;;;;;4964725;28;20213;-64
2021/07/01 11:08:29;;;;;;;0.00;0.00;;;18.10;99.90;;;;;;4970201;28;20231;-63
2021/07/01 11:10:58;;;;;;;0.37;0.23;;;18.20;99.90;;;;;;4964440;28;20272;-63
2021/07/01 11:13:27;;;;;;;0.00;0.00;;;18.20;99.90;;;;;;4969719;28;20218;-63
2021/07/01 11:16:05;;;;;;;0.00;0.00;;;18.10;99.90;;;;;;4963087;28;20214;-65
2021/07/01 11:18:35;;;;;;;0.00;0.00;;;18.10;99.90;;;;;;4956214;28;20214;-63
2021/07/01 11:21:14;;;;;;;0.23;0.23;;;18.10;99.90;;;;;;4968952;28;20661;-64
2021/07/01 11:23:42;;;;;;;0.00;0.00;;;18.00;99.90;;;;;;4969651;28;20190;-64
2021/07/01 11:26:32;;;;;;;0.00;0.00;;;17.90;99.90;;;;;;4971171;28;20214;-65
2021/07/01 11:29:03;;;;;;;0.00;0.00;;;17.90;99.90;;;;;;4964637;28;20233;-65
2021/07/01 11:31:39;;;;;;;0.00;0.00;;;17.80;99.90;;;;;;4967706;28;20212;-64
2021/07/01 11:34:08;;;;;;;0.00;0.00;;;17.70;99.90;;;;;;4963029;28;20206;-65
2021/07/01 11:36:36;;;;;;;0.00;0.00;;;17.60;99.90;;;;;;4967954;28;20213;-64
2021/07/01 11:39:12;;;;;;;0.10;0.10;;;17.50;99.90;;;;;;4968542;28;20260;-65
2021/07/01 11:41:42;;;;;;;0.63;0.53;;;17.60;99.90;;;;;;4969269;28;20210;-65
2021/07/01 11:44:11;;;;;;;0.33;0.33;;;17.60;99.90;;;;;;4969376;28;20198;-66
2021/07/01 11:46:39;;;;;;;0.00;0.00;;;17.60;99.90;;;;;;4968070;28;20203;-64
2021/07/01 11:49:07;;;;;;;0.00;0.00;;;17.70;99.90;;;;;;4965125;28;20226;-64
2021/07/01 11:51:35;;;;;;;0.00;0.00;;;17.80;99.90;;;;;;4966347;28;20203;-64
2021/07/01 11:54:02;;;;;;;0.00;0.00;;;18.00;99.90;;;;;;4968233;28;20207;-65
2021/07/01 11:56:30;;;;;;;0.40;0.37;;;18.10;99.90;;;;;;4965216;28;20207;-65
2021/07/01 11:58:58;;;;;;;0.17;0.17;;;18.10;99.90;;;;;;4967629;28;20612;-64
2021/07/01 12:01:27;;;;;;;0.00;0.00;;;18.20;99.90;;;;;;4964230;28;20217;-63
2021/07/01 12:03:55;;;;;;;0.00;0.00;;;18.20;99.90;;;;;;4964620;28;20676;-65
2021/07/01 12:06:35;;;;;;;0.00;0.00;;;18.30;99.90;;;;;;4967029;28;20198;-66
2021/07/01 12:09:02;;;;;;;0.00;0.00;;;18.30;99.90;;;;;;4966912;28;20368;-65
2021/07/01 12:11:29;;;;;;;0.00;0.00;;;18.20;99.90;;;;;;4965866;28;20210;-67
2021/07/01 12:13:57;;;;;;;4.70;0.47;;;18.20;99.90;;;;;;4968430;28;20665;-64
2021/07/01 12:16:40;;;;;;;0.63;0.63;;;18.10;99.90;;;;;;4966966;28;20215;-64
2021/07/01 12:19:08;;;;;;;0.20;0.20;;;17.90;99.90;;;;;;4968914;28;20271;-65
2021/07/01 12:21:35;;;;;;;0.10;0.10;;;17.80;99.90;;;;;;4970340;28;20256;-65
2021/07/01 12:24:04;;;;;;;0.43;0.30;;;17.60;99.90;;;;;;4969570;28;20206;-65
2021/07/01 12:26:42;;;;;;;0.00;0.00;;;17.60;99.90;;;;;;4970770;28;20289;-64
2021/07/01 12:29:13;;;;;;;0.10;0.10;;;17.60;99.90;;;;;;4969930;28;20241;-65
2021/07/01 12:31:41;;;;;;;1.00;0.20;;;17.70;99.90;;;;;;4972775;28;20249;-65
2021/07/01 12:34:10;;;;;;;0.00;0.00;;;17.50;99.90;;;;;;4973929;28;20206;-64
2021/07/01 12:36:40;;;;;;;0.23;0.13;;;17.50;99.90;;;;;;4975592;28;20772;-65
2021/07/01 12:39:25;;;;;;;0.00;0.00;;;17.50;99.90;;;;;;4966247;28;20202;-63
2021/07/01 12:41:55;;;;;;;0.27;0.03;;;17.50;99.90;;;;;;4966316;28;20269;-65
2021/07/01 12:44:30;;;;;;;0.00;0.00;;;17.40;99.90;;;;;;4957172;28;20206;-64
2021/07/01 12:46:59;;;;;;;0.03;0.03;;;17.30;99.90;;;;;;4966075;28;20638;-63
2021/07/01 12:49:57;;;;;;;0.10;0.10;;;17.30;99.90;;;;;;4967879;28;20245;-67
2021/07/01 12:52:42;;;;;;;0.00;0.00;;;17.20;99.90;;;;;;4965106;28;20233;-63
2021/07/01 12:55:18;;;;;;;0.00;0.00;;;17.20;99.90;;;;;;4970485;28;20198;-63
2021/07/01 12:57:46;;;;;;;0.00;0.00;;;17.30;99.90;;;;;;4974027;28;20202;-63
2021/07/01 13:00:15;;;;;;;0.00;0.00;;;17.30;99.90;;;;;;4977021;28;20221;-64